Time;durP1;ratioP1;P1;durP2;ratioP2;P2;SDS_P1;SDS_P2;PMS_P1;PMS_P2;Temp;Humidity;BMP_temperature;BMP_pressure;BME280_temperature;BME280_humidity;BME280_pressure;Samples;Min_cycle;Max_cycle;Signal;HPM_P1;HPM_P2
2022/06/08 00:01:50;;;;;;;0.93;0.80;;;15.70;32.30;;;;;;5095127;27;35697;-79
2022/06/08 00:04:22;;;;;;;0.60;0.60;;;15.70;32.20;;;;;;5095039;28;34560;-79
2022/06/08 00:06:49;;;;;;;0.63;0.63;;;15.70;32.20;;;;;;5122975;27;34033;-79
2022/06/08 00:09:15;;;;;;;0.75;0.65;;;15.70;32.20;;;;;;5150979;27;34067;-79
2022/06/08 00:11:40;;;;;;;3.05;0.70;;;15.60;32.10;;;;;;5132498;27;35735;-79
2022/06/08 00:14:06;;;;;;;0.68;0.60;;;15.70;32.20;;;;;;5115871;27;34112;-79
2022/06/08 00:16:32;;;;;;;4.20;0.80;;;15.70;32.20;;;;;;5127202;27;34056;-80
2022/06/08 00:18:58;;;;;;;5.32;0.73;;;15.60;32.20;;;;;;5107933;27;34060;-79
2022/06/08 00:21:24;;;;;;;1.05;0.82;;;15.60;32.20;;;;;;5123673;27;34939;-79
2022/06/08 00:23:50;;;;;;;2.42;0.60;;;15.60;32.20;;;;;;5108199;28;34209;-80
2022/06/08 00:26:17;;;;;;;1.35;0.60;;;15.60;32.20;;;;;;5125866;27;34173;-80
2022/06/08 00:28:43;;;;;;;0.80;0.80;;;15.60;32.20;;;;;;5091232;28;34321;-79
2022/06/08 00:31:10;;;;;;;0.95;0.60;;;15.50;32.20;;;;;;5090962;28;36243;-79
2022/06/08 00:33:36;;;;;;;4.78;0.80;;;15.50;32.20;;;;;;5091793;28;34075;-79
2022/06/08 00:36:03;;;;;;;0.80;0.80;;;15.50;32.20;;;;;;5110768;27;34452;-79
2022/06/08 00:38:29;;;;;;;2.90;0.80;;;15.40;32.20;;;;;;5129736;27;34428;-79
2022/06/08 00:41:25;;;;;;;0.63;0.52;;;15.50;32.30;;;;;;5125713;27;34428;-79
2022/06/08 00:43:52;;;;;;;0.98;0.60;;;15.40;33.00;;;;;;5124310;27;34316;-78
2022/06/08 00:46:18;;;;;;;0.70;0.70;;;15.40;32.20;;;;;;5091623;27;34279;-79
2022/06/08 00:48:52;;;;;;;1.08;0.57;;;15.30;32.30;;;;;;5091363;28;34150;-79
2022/06/08 00:51:18;;;;;;;0.85;0.63;;;15.30;32.30;;;;;;5095133;27;36773;-79
2022/06/08 00:53:53;;;;;;;1.15;0.70;;;15.20;32.20;;;;;;5145633;27;34279;-79
2022/06/08 00:56:26;;;;;;;1.38;1.05;;;15.20;32.40;;;;;;5110792;27;34121;-79
2022/06/08 00:58:52;;;;;;;2.97;0.90;;;15.20;32.40;;;;;;5090480;27;34239;-79
2022/06/08 01:01:18;;;;;;;0.73;0.73;;;15.10;32.30;;;;;;5120644;27;34394;-80
2022/06/08 01:03:44;;;;;;;2.42;0.63;;;15.10;32.30;;;;;;5114602;27;34335;-79
2022/06/08 01:06:19;;;;;;;0.65;0.65;;;15.10;32.30;;;;;;5129407;27;34110;-79
2022/06/08 01:08:49;;;;;;;1.95;0.70;;;15.10;32.60;;;;;;5107007;27;34304;-79
2022/06/08 01:11:31;;;;;;;0.70;0.70;;;15.00;32.40;;;;;;5121164;27;35915;-80
2022/06/08 01:14:00;;;;;;;1.15;1.00;;;15.00;32.60;;;;;;5130298;27;34486;-79
2022/06/08 01:16:26;;;;;;;1.73;1.00;;;15.00;32.50;;;;;;5109857;27;34408;-80
2022/06/08 01:18:52;;;;;;;0.98;0.98;;;14.90;32.50;;;;;;5090782;28;34365;-80
2022/06/08 01:21:47;;;;;;;0.90;0.90;;;14.90;32.50;;;;;;5126187;27;34852;-79
2022/06/08 01:24:13;;;;;;;1.30;1.10;;;15.00;33.70;;;;;;5124261;27;34073;-79
2022/06/08 01:27:03;;;;;;;3.47;1.10;;;15.00;32.50;;;;;;5113199;27;34270;-79
2022/06/08 01:29:40;;;;;;;0.90;0.90;;;15.00;33.10;;;;;;5112439;27;34447;-79
2022/06/08 01:32:34;;;;;;;3.33;1.00;;;15.00;32.70;;;;;;5109636;27;35670;-79
2022/06/08 01:35:21;;;;;;;2.25;1.08;;;15.00;33.10;;;;;;5124347;27;34431;-79
2022/06/08 01:38:04;;;;;;;1.73;1.00;;;15.10;33.70;;;;;;5102228;28;34362;-79
2022/06/08 01:41:05;;;;;;;1.15;1.00;;;15.10;33.10;;;;;;5089876;28;34278;-79
2022/06/08 01:43:55;;;;;;;0.93;0.80;;;15.10;34.00;;;;;;5076235;28;35966;-79
2022/06/08 01:46:25;;;;;;;1.83;1.27;;;15.10;33.10;;;;;;5103068;28;34393;-79
2022/06/08 01:49:12;;;;;;;3.10;1.13;;;15.10;32.70;;;;;;5067868;28;34161;-79
2022/06/08 01:52:09;;;;;;;2.10;1.20;;;15.10;33.00;;;;;;5103129;28;34066;-79
2022/06/08 01:54:50;;;;;;;1.50;1.40;;;15.10;33.70;;;;;;5080839;28;34441;-79
2022/06/08 01:57:47;;;;;;;1.42;1.30;;;15.10;33.30;;;;;;5079673;28;34129;-79
2022/06/08 02:00:30;;;;;;;2.83;1.77;;;15.10;33.60;;;;;;5115457;27;34085;-79
2022/06/08 02:03:08;;;;;;;3.83;1.48;;;15.10;33.60;;;;;;5122908;27;34325;-79
2022/06/08 02:05:53;;;;;;;5.68;1.50;;;15.10;33.00;;;;;;5068089;28;35674;-79
2022/06/08 02:08:43;;;;;;;6.13;1.52;;;15.00;32.80;;;;;;5091874;28;34395;-79
2022/06/08 02:11:40;;;;;;;5.60;1.52;;;15.00;33.80;;;;;;5100569;28;34189;-79
2022/06/08 02:14:14;;;;;;;6.13;1.50;;;15.10;33.80;;;;;;5086740;28;34075;-79
2022/06/08 02:16:53;;;;;;;8.15;1.00;;;15.00;32.80;;;;;;5078755;27;35814;-79
2022/06/08 02:19:29;;;;;;;1.90;1.17;;;15.00;33.30;;;;;;5123936;27;34089;-79
2022/06/08 02:22:03;;;;;;;8.80;1.70;;;15.00;33.10;;;;;;5088915;27;34149;-79
2022/06/08 02:24:34;;;;;;;2.58;1.25;;;15.00;32.90;;;;;;5092480;27;33926;-79
2022/06/08 02:27:09;;;;;;;9.68;1.50;;;15.00;32.90;;;;;;5127124;27;34638;-80
2022/06/08 02:29:42;;;;;;;4.80;1.20;;;14.90;33.10;;;;;;5073953;28;33795;-80
2022/06/08 02:35:02;;;;;;;2.47;1.08;;;14.90;33.10;;;;;;5099115;28;34067;-79
2022/06/08 02:37:31;;;;;;;8.88;1.40;;;14.90;33.00;;;;;;5096487;28;35598;-80
2022/06/08 02:40:11;;;;;;;7.13;1.10;;;14.90;33.00;;;;;;5089249;28;34543;-79
2022/06/08 02:42:44;;;;;;;2.08;1.17;;;14.90;33.20;;;;;;5131825;27;34391;-79
2022/06/08 02:45:15;;;;;;;7.20;1.15;;;14.90;33.20;;;;;;5106890;28;34501;-79
2022/06/08 02:47:43;;;;;;;1.17;1.00;;;14.80;33.10;;;;;;5100354;27;36530;-79
2022/06/08 02:50:14;;;;;;;4.20;1.10;;;14.80;33.00;;;;;;5107893;27;34222;-79
2022/06/08 02:52:43;;;;;;;5.32;1.25;;;14.80;33.00;;;;;;5134485;27;34265;-79
2022/06/08 02:55:31;;;;;;;6.75;1.20;;;14.80;33.00;;;;;;5096388;28;34120;-78
2022/06/08 02:58:05;;;;;;;3.83;1.20;;;14.80;33.40;;;;;;5124717;27;35965;-80
2022/06/08 03:00:40;;;;;;;1.17;1.08;;;14.80;33.20;;;;;;5107046;28;34260;-78
2022/06/08 03:03:20;;;;;;;1.10;1.00;;;14.70;33.20;;;;;;5122252;27;33928;-78
2022/06/08 03:05:53;;;;;;;6.38;1.10;;;14.70;33.60;;;;;;5107867;28;34292;-79
2022/06/08 03:08:23;;;;;;;2.63;0.90;;;14.70;33.20;;;;;;5091179;28;35543;-79
2022/06/08 03:10:51;;;;;;;3.78;1.10;;;14.70;33.10;;;;;;5107922;27;34246;-78
2022/06/08 03:13:39;;;;;;;2.38;1.10;;;14.60;33.00;;;;;;5125712;27;34222;-78
2022/06/08 03:16:07;;;;;;;0.88;0.88;;;14.60;34.00;;;;;;5109662;28;34306;-79
2022/06/08 03:18:34;;;;;;;3.70;1.20;;;14.60;33.20;;;;;;5123220;27;36116;-79
2022/06/08 03:21:03;;;;;;;1.40;0.90;;;14.60;33.10;;;;;;5112282;27;34453;-78
2022/06/08 03:23:30;;;;;;;2.17;1.23;;;14.60;33.10;;;;;;5111300;27;34310;-79
2022/06/08 03:25:56;;;;;;;5.35;1.00;;;14.60;33.00;;;;;;5109947;27;34004;-80
2022/06/08 03:28:22;;;;;;;1.17;1.08;;;14.60;33.00;;;;;;5132962;27;34296;-78
2022/06/08 03:30:48;;;;;;;2.08;1.08;;;14.60;33.10;;;;;;5130113;27;33741;-79
2022/06/08 03:33:15;;;;;;;3.70;1.13;;;14.60;33.10;;;;;;5131049;27;34043;-79
2022/06/08 03:35:41;;;;;;;1.40;1.17;;;14.60;33.00;;;;;;5112051;27;34485;-79
2022/06/08 03:38:08;;;;;;;1.35;0.85;;;14.60;33.00;;;;;;5117845;27;35539;-78
2022/06/08 03:40:34;;;;;;;1.70;0.77;;;14.60;33.00;;;;;;5102578;28;34233;-78
2022/06/08 03:43:00;;;;;;;0.90;0.90;;;14.60;33.00;;;;;;5108973;27;34153;-79
2022/06/08 03:45:30;;;;;;;0.98;0.98;;;14.60;33.00;;;;;;5080299;28;34176;-78
2022/06/08 03:47:56;;;;;;;6.43;0.70;;;14.60;33.00;;;;;;5105988;27;35003;-78
2022/06/08 03:50:28;;;;;;;2.00;0.80;;;14.60;32.90;;;;;;5070341;28;34314;-79
2022/06/08 03:53:00;;;;;;;0.60;0.60;;;14.60;33.00;;;;;;5075444;28;34135;-79
2022/06/08 03:55:28;;;;;;;2.53;0.77;;;14.50;33.10;;;;;;5114380;27;34218;-79
2022/06/08 03:57:54;;;;;;;6.60;0.65;;;14.50;33.00;;;;;;5071006;28;36762;-79
2022/06/08 04:00:23;;;;;;;0.70;0.70;;;14.40;32.90;;;;;;5069593;28;34352;-78
2022/06/08 04:02:50;;;;;;;6.18;0.90;;;14.40;32.90;;;;;;5086424;28;34272;-79
2022/06/08 04:05:16;;;;;;;6.13;1.10;;;14.40;33.10;;;;;;5069219;28;34170;-78
2022/06/08 04:07:43;;;;;;;6.45;0.95;;;14.40;33.10;;;;;;5096265;28;34198;-78
2022/06/08 04:10:10;;;;;;;2.50;0.95;;;14.40;33.10;;;;;;5084575;28;34081;-78
2022/06/08 04:12:36;;;;;;;4.20;0.73;;;14.40;33.00;;;;;;5080778;28;34208;-78
2022/06/08 04:15:03;;;;;;;0.95;0.90;;;14.50;33.20;;;;;;5087567;28;34155;-79
2022/06/08 04:17:29;;;;;;;0.80;0.80;;;14.50;33.30;;;;;;5093225;27;36048;-79
2022/06/08 04:19:56;;;;;;;7.38;0.82;;;14.50;33.20;;;;;;5091699;28;34083;-78
2022/06/08 04:22:23;;;;;;;0.75;0.75;;;14.50;33.30;;;;;;5089673;28;34185;-79
2022/06/08 04:24:49;;;;;;;4.47;1.08;;;14.60;33.20;;;;;;5072681;28;34417;-78
2022/06/08 04:27:16;;;;;;;0.82;0.82;;;14.60;33.10;;;;;;5062099;28;35582;-79
2022/06/08 04:29:42;;;;;;;1.10;1.00;;;14.60;33.20;;;;;;5082236;28;34388;-79
2022/06/08 04:32:10;;;;;;;0.80;0.80;;;14.60;33.20;;;;;;5104582;27;34307;-78
2022/06/08 04:34:38;;;;;;;1.92;1.25;;;14.70;33.10;;;;;;5064933;28;34453;-79
2022/06/08 04:37:05;;;;;;;1.02;1.00;;;14.70;33.20;;;;;;5089797;27;35818;-79
2022/06/08 04:39:30;;;;;;;4.90;1.00;;;14.70;33.20;;;;;;5092498;27;34333;-78
2022/06/08 04:41:57;;;;;;;3.70;0.68;;;14.80;33.10;;;;;;5127029;27;34322;-77
2022/06/08 04:44:24;;;;;;;0.80;0.70;;;14.80;33.00;;;;;;5106866;28;34255;-78
2022/06/08 04:46:50;;;;;;;0.85;0.85;;;14.80;32.90;;;;;;5102874;27;35868;-79
2022/06/08 04:49:16;;;;;;;5.13;1.00;;;14.90;32.90;;;;;;5092271;27;34236;-78
2022/06/08 04:51:43;;;;;;;1.60;0.95;;;14.90;33.10;;;;;;5112403;27;33825;-78
2022/06/08 04:54:09;;;;;;;2.05;1.15;;;14.90;32.90;;;;;;5107502;27;34396;-79
2022/06/08 04:56:35;;;;;;;5.38;1.17;;;14.90;32.90;;;;;;5142800;27;35602;-78
2022/06/08 04:59:01;;;;;;;2.45;1.08;;;15.00;32.90;;;;;;5139438;27;34060;-79
2022/06/08 05:01:28;;;;;;;4.35;1.23;;;15.00;32.90;;;;;;5108279;27;34240;-78
2022/06/08 05:03:54;;;;;;;4.97;1.27;;;15.00;32.90;;;;;;5109405;27;34257;-78
2022/06/08 05:06:39;;;;;;;3.10;1.40;;;15.10;33.00;;;;;;5108506;27;35704;-78
2022/06/08 05:09:05;;;;;;;1.08;0.98;;;15.10;32.90;;;;;;5107973;27;34175;-79
2022/06/08 05:11:31;;;;;;;1.42;1.13;;;15.10;32.80;;;;;;5108096;27;34232;-78
2022/06/08 05:13:57;;;;;;;1.23;1.13;;;15.20;32.80;;;;;;5108035;27;34567;-78
2022/06/08 05:16:23;;;;;;;1.50;1.27;;;15.20;32.70;;;;;;5107794;27;34994;-78
2022/06/08 05:18:49;;;;;;;3.30;1.60;;;15.30;32.80;;;;;;5107459;27;34384;-79
2022/06/08 05:21:15;;;;;;;1.67;1.23;;;15.30;32.70;;;;;;5107571;27;34202;-77
2022/06/08 05:23:43;;;;;;;1.42;1.17;;;15.30;32.70;;;;;;5106915;27;34183;-78
2022/06/08 05:26:09;;;;;;;2.88;1.17;;;15.40;33.20;;;;;;5108264;27;36338;-79
2022/06/08 05:28:35;;;;;;;1.35;1.17;;;15.50;32.80;;;;;;5108039;27;34380;-78
2022/06/08 05:31:01;;;;;;;1.90;1.23;;;15.60;32.70;;;;;;5126748;27;34213;-79
2022/06/08 05:33:28;;;;;;;2.50;1.40;;;15.60;32.70;;;;;;5088633;27;34568;-78
2022/06/08 05:35:55;;;;;;;2.38;1.42;;;15.70;32.60;;;;;;5108420;27;35600;-79
2022/06/08 05:38:22;;;;;;;4.13;1.63;;;15.70;32.70;;;;;;5097287;27;34390;-78
2022/06/08 05:40:48;;;;;;;1.20;1.15;;;15.70;32.60;;;;;;5098518;28;34307;-79
2022/06/08 05:43:16;;;;;;;3.63;1.30;;;15.80;32.50;;;;;;5070078;28;34109;-78
2022/06/08 05:45:42;;;;;;;1.55;1.45;;;15.80;32.40;;;;;;5084572;28;35514;-79
2022/06/08 05:48:08;;;;;;;1.42;1.33;;;15.80;32.40;;;;;;5109743;27;33992;-79
2022/06/08 05:50:35;;;;;;;1.42;1.30;;;15.90;32.60;;;;;;5088740;28;34111;-79
2022/06/08 05:53:02;;;;;;;2.65;1.38;;;15.90;32.60;;;;;;5088174;28;33916;-79
2022/06/08 05:55:29;;;;;;;2.08;1.08;;;16.00;32.50;;;;;;5105909;28;34515;-80
2022/06/08 05:57:54;;;;;;;1.42;1.10;;;16.00;32.40;;;;;;5088512;28;34230;-79
2022/06/08 06:00:25;;;;;;;1.38;1.10;;;16.00;32.40;;;;;;5088745;28;34418;-80
2022/06/08 06:02:51;;;;;;;1.80;1.30;;;16.00;32.60;;;;;;5089015;28;34364;-79
2022/06/08 06:05:21;;;;;;;1.35;1.25;;;16.10;32.60;;;;;;5088798;28;36083;-80
2022/06/08 06:07:47;;;;;;;2.13;1.38;;;16.20;32.70;;;;;;5104973;28;34109;-80
2022/06/08 06:10:15;;;;;;;1.33;1.20;;;16.30;32.60;;;;;;5088850;28;34203;-80
2022/06/08 06:12:41;;;;;;;1.40;1.30;;;16.40;32.40;;;;;;5087214;28;34105;-81
2022/06/08 06:15:08;;;;;;;1.65;1.55;;;16.50;32.20;;;;;;5087920;28;36386;-80
2022/06/08 06:17:34;;;;;;;1.60;1.50;;;16.60;32.10;;;;;;5101241;28;34298;-81
2022/06/08 06:20:00;;;;;;;1.77;1.33;;;16.60;32.00;;;;;;5086373;28;34220;-80
2022/06/08 06:22:26;;;;;;;1.92;1.60;;;16.70;32.00;;;;;;5101370;28;34170;-79
2022/06/08 06:24:53;;;;;;;1.75;1.50;;;16.80;32.00;;;;;;5098235;28;34140;-81
2022/06/08 06:27:21;;;;;;;3.83;1.58;;;16.80;31.90;;;;;;5072816;28;34060;-81
2022/06/08 06:29:47;;;;;;;1.30;1.20;;;16.90;32.10;;;;;;5086824;28;34233;-81
2022/06/08 06:32:25;;;;;;;2.05;1.33;;;17.00;32.00;;;;;;5099065;28;34277;-81
2022/06/08 06:34:51;;;;;;;1.70;1.40;;;17.10;32.30;;;;;;5105323;27;35714;-81
2022/06/08 06:37:17;;;;;;;1.60;1.50;;;17.10;31.80;;;;;;5083446;28;34135;-82
2022/06/08 06:39:43;;;;;;;3.67;1.50;;;17.20;31.70;;;;;;5110743;27;34396;-81
2022/06/08 06:42:15;;;;;;;1.95;1.50;;;17.30;31.50;;;;;;5113243;27;34291;-81
2022/06/08 06:44:41;;;;;;;4.05;1.40;;;17.40;31.70;;;;;;5122206;27;35915;-81
2022/06/08 06:47:08;;;;;;;2.05;1.48;;;17.50;31.20;;;;;;5101854;27;34503;-79
2022/06/08 06:49:33;;;;;;;2.25;1.48;;;17.70;31.70;;;;;;5111226;27;34239;-81
2022/06/08 06:51:59;;;;;;;2.03;1.60;;;17.70;30.90;;;;;;5104511;27;34233;-81
2022/06/08 06:54:25;;;;;;;1.48;1.38;;;17.80;30.90;;;;;;5131208;27;34948;-81
2022/06/08 06:56:51;;;;;;;1.50;1.40;;;18.00;30.90;;;;;;5136096;27;34094;-81
2022/06/08 06:59:17;;;;;;;2.45;1.67;;;18.30;30.50;;;;;;5107600;27;34186;-79
2022/06/08 07:01:43;;;;;;;2.53;1.60;;;18.90;30.10;;;;;;5107207;27;34237;-78
2022/06/08 07:04:09;;;;;;;3.17;1.85;;;19.30;29.90;;;;;;5106966;27;36006;-78
2022/06/08 07:06:35;;;;;;;1.45;1.35;;;19.60;29.30;;;;;;5090097;27;34195;-79
2022/06/08 07:09:01;;;;;;;2.30;1.50;;;19.90;29.00;;;;;;5088931;27;34163;-77
2022/06/08 07:11:37;;;;;;;2.60;1.33;;;20.10;28.60;;;;;;5125982;27;34063;-78
2022/06/08 07:14:05;;;;;;;2.17;1.65;;;20.30;28.20;;;;;;5123459;27;35837;-77
2022/06/08 07:16:33;;;;;;;1.98;1.30;;;20.20;27.70;;;;;;5105744;27;34099;-77
2022/06/08 07:18:59;;;;;;;2.30;1.40;;;20.20;28.10;;;;;;5105956;27;33846;-77
2022/06/08 07:21:25;;;;;;;2.97;1.73;;;20.30;28.40;;;;;;5113078;27;34510;-77
2022/06/08 07:23:52;;;;;;;3.85;1.60;;;20.30;28.20;;;;;;5126560;27;36374;-78
2022/06/08 07:26:18;;;;;;;2.55;1.40;;;20.20;28.20;;;;;;5126348;27;35160;-77
2022/06/08 07:28:44;;;;;;;2.08;1.60;;;20.30;28.30;;;;;;5118888;27;34194;-77
2022/06/08 07:31:12;;;;;;;2.35;1.50;;;20.40;28.10;;;;;;5105759;27;34384;-76
2022/06/08 07:33:39;;;;;;;3.38;1.42;;;20.70;28.00;;;;;;5122462;27;36241;-77
2022/06/08 07:36:05;;;;;;;4.28;1.60;;;21.00;27.80;;;;;;5123816;27;34170;-78
2022/06/08 07:38:32;;;;;;;4.10;1.60;;;21.30;27.60;;;;;;5113428;27;34542;-77
2022/06/08 07:40:58;;;;;;;2.90;1.60;;;21.50;27.10;;;;;;5099711;27;34166;-77
2022/06/08 07:43:24;;;;;;;1.58;1.45;;;21.50;26.90;;;;;;5124245;27;34420;-78
2022/06/08 07:45:50;;;;;;;3.22;1.33;;;21.60;26.80;;;;;;5142153;27;34052;-78
2022/06/08 07:50:58;;;;;;;3.22;1.48;;;21.40;26.60;;;;;;5124817;27;34165;-79
2022/06/08 07:53:23;;;;;;;4.78;1.33;;;21.30;26.90;;;;;;5117359;27;34909;-79
2022/06/08 07:55:49;;;;;;;3.80;1.30;;;21.20;27.00;;;;;;5128003;27;34013;-78
2022/06/08 07:58:16;;;;;;;1.58;1.27;;;21.10;27.10;;;;;;5110323;27;34199;-78
2022/06/08 08:00:46;;;;;;;5.20;1.77;;;21.00;27.10;;;;;;5109852;27;33970;-78
2022/06/08 08:03:15;;;;;;;3.45;1.42;;;21.00;27.10;;;;;;5122566;27;36051;-78
2022/06/08 08:05:42;;;;;;;4.45;1.40;;;21.00;27.10;;;;;;5113179;27;34108;-79
2022/06/08 08:08:08;;;;;;;1.38;1.20;;;20.90;27.00;;;;;;5093526;27;34168;-80
2022/06/08 08:10:34;;;;;;;2.88;1.30;;;20.80;26.80;;;;;;5132319;27;34045;-80
2022/06/08 08:13:00;;;;;;;2.58;1.30;;;20.70;27.00;;;;;;5112745;27;35873;-80
2022/06/08 08:15:27;;;;;;;1.85;1.13;;;20.70;27.20;;;;;;5131416;27;34106;-81
2022/06/08 08:17:54;;;;;;;2.67;1.40;;;20.70;27.00;;;;;;5107333;27;34418;-79
2022/06/08 08:20:21;;;;;;;4.13;1.15;;;20.60;26.90;;;;;;5113626;27;35103;-80
2022/06/08 08:22:47;;;;;;;2.15;1.20;;;20.60;27.30;;;;;;5108380;27;35628;-83
2022/06/08 08:25:16;;;;;;;5.57;1.48;;;20.50;27.60;;;;;;5109001;27;34546;-80
2022/06/08 08:27:44;;;;;;;1.88;1.23;;;20.50;28.00;;;;;;5129647;27;34059;-81
2022/06/08 08:30:13;;;;;;;2.53;1.83;;;20.40;28.00;;;;;;5094401;27;34562;-81
2022/06/08 08:32:40;;;;;;;2.85;1.48;;;20.40;28.10;;;;;;5110666;27;36354;-81
2022/06/08 08:35:07;;;;;;;3.05;1.60;;;20.30;28.50;;;;;;5100571;27;34186;-81
2022/06/08 08:37:33;;;;;;;8.07;1.35;;;20.20;28.50;;;;;;5095572;27;34282;-81
2022/06/08 08:39:59;;;;;;;3.53;1.70;;;20.20;28.60;;;;;;5112621;27;34071;-81
2022/06/08 08:42:26;;;;;;;4.75;1.85;;;20.20;28.90;;;;;;5100471;28;35134;-80
2022/06/08 08:44:59;;;;;;;4.75;1.60;;;20.20;28.80;;;;;;5110794;27;34067;-80
2022/06/08 08:47:50;;;;;;;3.70;1.60;;;20.20;28.80;;;;;;5120025;27;34134;-80
2022/06/08 08:50:32;;;;;;;3.28;1.80;;;20.20;29.70;;;;;;5124870;27;34102;-80
2022/06/08 08:53:22;;;;;;;1.83;1.50;;;20.20;28.70;;;;;;5101314;27;35989;-80
2022/06/08 08:56:03;;;;;;;1.80;1.35;;;20.20;28.60;;;;;;5109003;27;34250;-80
2022/06/08 08:58:35;;;;;;;3.70;1.42;;;20.20;28.60;;;;;;5128494;27;34146;-79
2022/06/08 09:01:11;;;;;;;1.90;1.33;;;20.10;28.90;;;;;;5106823;27;34570;-80
2022/06/08 09:03:40;;;;;;;3.38;1.40;;;20.10;28.90;;;;;;5091655;28;36642;-81
2022/06/08 09:06:12;;;;;;;1.50;1.00;;;20.00;29.00;;;;;;5109109;27;34130;-82
2022/06/08 09:08:39;;;;;;;2.80;1.55;;;20.00;29.20;;;;;;5128088;27;34197;-80
2022/06/08 09:11:16;;;;;;;1.65;1.08;;;19.90;29.00;;;;;;5128000;27;34206;-81
2022/06/08 09:13:50;;;;;;;3.40;1.50;;;20.00;29.40;;;;;;5109855;27;35832;-80
2022/06/08 09:16:37;;;;;;;4.70;1.42;;;19.90;29.10;;;;;;5119225;27;34173;-80
2022/06/08 09:19:28;;;;;;;3.25;1.20;;;19.90;28.40;;;;;;5109931;27;34091;-78
2022/06/08 09:22:18;;;;;;;3.40;1.20;;;19.90;29.70;;;;;;5110277;27;34173;-79
2022/06/08 09:24:49;;;;;;;1.80;1.00;;;19.80;28.00;;;;;;5084155;28;34318;-78
2022/06/08 09:27:27;;;;;;;1.95;1.10;;;19.80;29.10;;;;;;5104749;28;34233;-78
2022/06/08 09:30:18;;;;;;;3.85;1.30;;;19.70;28.60;;;;;;5123035;27;34217;-80
2022/06/08 09:32:49;;;;;;;3.22;1.15;;;19.70;28.50;;;;;;5124914;27;34271;-80
2022/06/08 09:35:24;;;;;;;3.25;1.58;;;19.70;29.00;;;;;;5130188;27;36006;-80
2022/06/08 09:37:53;;;;;;;3.63;1.10;;;19.80;29.70;;;;;;5136629;27;34140;-80
2022/06/08 09:43:30;;;;;;;4.40;1.50;;;19.50;28.60;;;;;;5131926;27;33843;-81
2022/06/08 09:46:23;;;;;;;2.92;1.15;;;19.50;28.50;;;;;;5125669;27;35934;-78
2022/06/08 09:52:05;;;;;;;1.95;1.48;;;19.50;29.10;;;;;;5119970;27;34294;-81
2022/06/08 09:55:05;;;;;;;2.05;1.40;;;19.60;30.30;;;;;;5127365;27;34289;-81
2022/06/08 09:57:46;;;;;;;5.45;1.40;;;19.70;31.50;;;;;;5104326;28;35766;-82
2022/06/08 10:00:27;;;;;;;4.47;1.50;;;19.80;30.40;;;;;;5109013;28;34309;-81
2022/06/08 10:03:17;;;;;;;2.53;1.30;;;19.90;29.70;;;;;;5108804;28;34073;-82
2022/06/08 10:06:13;;;;;;;2.20;1.20;;;20.00;30.00;;;;;;5109544;28;34191;-82
2022/06/08 10:09:00;;;;;;;2.78;1.25;;;20.10;29.00;;;;;;5125927;27;35756;-82
2022/06/08 10:11:48;;;;;;;4.05;1.42;;;20.20;29.30;;;;;;5092458;28;34424;-82
2022/06/08 10:14:30;;;;;;;4.15;1.48;;;20.30;29.90;;;;;;5095070;27;34547;-80
2022/06/08 10:17:03;;;;;;;2.33;1.20;;;20.40;29.30;;;;;;5130072;27;34194;-80
2022/06/08 10:19:51;;;;;;;2.22;1.20;;;20.40;28.20;;;;;;5111692;27;35900;-81
2022/06/08 10:22:18;;;;;;;2.90;1.35;;;20.50;29.50;;;;;;5111443;27;34637;-81
2022/06/08 10:24:58;;;;;;;4.60;1.33;;;20.60;28.30;;;;;;5129731;27;34361;-83
2022/06/08 10:27:34;;;;;;;3.00;1.15;;;20.60;27.60;;;;;;5111976;27;34166;-81
2022/06/08 10:30:24;;;;;;;3.15;1.60;;;20.50;27.70;;;;;;5129606;27;34358;-81
2022/06/08 10:32:59;;;;;;;3.53;1.50;;;20.40;27.70;;;;;;5110931;27;34180;-81
2022/06/08 10:35:35;;;;;;;2.20;1.20;;;20.40;27.60;;;;;;5101749;27;34297;-81
2022/06/08 10:38:03;;;;;;;2.63;1.33;;;20.40;27.80;;;;;;5110305;27;34173;-82
2022/06/08 10:40:46;;;;;;;5.28;1.83;;;20.50;28.20;;;;;;5106330;28;36392;-81
2022/06/08 10:43:28;;;;;;;3.05;1.50;;;20.40;27.60;;;;;;5092037;28;33882;-82
2022/06/08 10:45:57;;;;;;;3.47;1.60;;;20.40;28.00;;;;;;5109386;27;34182;-81
2022/06/08 10:48:33;;;;;;;2.60;1.42;;;20.30;28.20;;;;;;5116575;27;34299;-80
2022/06/08 10:51:24;;;;;;;4.13;1.50;;;20.20;28.20;;;;;;5123772;27;34144;-81
2022/06/08 10:56:53;;;;;;;4.40;1.90;;;20.00;29.20;;;;;;5127245;27;34537;-79
2022/06/08 10:59:25;;;;;;;4.85;1.30;;;19.90;29.50;;;;;;5091392;28;34390;-78
2022/06/08 11:01:59;;;;;;;3.42;1.20;;;19.60;28.80;;;;;;5119030;27;36026;-82
2022/06/08 11:04:55;;;;;;;3.45;1.33;;;19.40;29.00;;;;;;5095628;27;34149;-79
2022/06/08 11:07:23;;;;;;;4.53;1.50;;;19.10;29.00;;;;;;5091799;27;34345;-80
2022/06/08 11:09:52;;;;;;;2.42;1.50;;;18.90;29.50;;;;;;5108948;27;34415;-81
2022/06/08 11:12:33;;;;;;;6.22;1.50;;;18.70;29.60;;;;;;5063840;27;35634;-79
2022/06/08 11:15:21;;;;;;;4.32;1.60;;;18.60;30.60;;;;;;5109437;27;34479;-80
2022/06/08 11:17:58;;;;;;;2.05;1.45;;;18.60;30.00;;;;;;5083032;28;34282;-78
2022/06/08 11:35:41;;;;;;;6.07;1.77;;;18.40;32.20;;;;;;5182917;27;34072;-73
2022/06/08 11:38:18;;;;;;;4.40;1.35;;;18.70;33.10;;;;;;5167060;27;34199;-78
2022/06/08 11:40:44;;;;;;;1.70;1.10;;;18.80;31.90;;;;;;5136685;27;34086;-78
2022/06/08 11:43:36;;;;;;;2.63;1.00;;;18.80;31.10;;;;;;5146968;27;35608;-76
2022/06/08 11:46:02;;;;;;;1.30;1.05;;;18.70;31.30;;;;;;5151125;27;34392;-77
2022/06/08 11:48:44;;;;;;;1.10;0.90;;;18.90;30.60;;;;;;5146543;27;33986;-75
2022/06/08 11:51:10;;;;;;;4.25;1.20;;;18.90;30.50;;;;;;5149266;27;34128;-80
2022/06/08 11:53:39;;;;;;;3.25;1.10;;;19.00;30.20;;;;;;5147711;27;34978;-75
2022/06/08 11:56:33;;;;;;;5.25;1.60;;;19.10;30.30;;;;;;5167828;27;34245;-79
2022/06/08 11:59:02;;;;;;;3.78;1.20;;;19.20;29.50;;;;;;5150859;27;34187;-80
2022/06/08 12:01:38;;;;;;;2.03;1.17;;;19.30;29.30;;;;;;5168058;27;34161;-79
2022/06/08 12:04:11;;;;;;;2.25;1.08;;;19.20;29.40;;;;;;5147530;27;34198;-75
2022/06/08 12:06:41;;;;;;;1.23;1.08;;;19.10;29.30;;;;;;5146582;27;34159;-76
2022/06/08 12:09:18;;;;;;;2.42;1.08;;;19.00;29.10;;;;;;5146411;27;34356;-75
2022/06/08 12:11:48;;;;;;;2.55;1.40;;;18.90;29.10;;;;;;5162956;27;34428;-76
2022/06/08 12:14:21;;;;;;;2.78;1.30;;;18.90;29.50;;;;;;5164746;27;35905;-80
2022/06/08 12:16:58;;;;;;;2.95;1.15;;;18.70;29.50;;;;;;5145731;27;34103;-74
2022/06/08 12:19:29;;;;;;;1.45;1.27;;;18.50;29.90;;;;;;5161975;27;34139;-82
2022/06/08 12:22:21;;;;;;;4.88;1.33;;;18.40;30.00;;;;;;5130675;27;34092;-80
2022/06/08 12:25:21;;;;;;;1.52;1.20;;;18.40;30.70;;;;;;5145951;27;35713;-77
2022/06/08 12:28:19;;;;;;;2.33;1.10;;;18.40;31.30;;;;;;5164217;27;34209;-79
2022/06/08 12:30:57;;;;;;;2.25;1.10;;;18.30;31.10;;;;;;5145873;27;34222;-79
2022/06/08 12:33:29;;;;;;;1.38;1.20;;;18.30;30.70;;;;;;5164091;27;34389;-78
2022/06/08 12:36:09;;;;;;;3.22;1.30;;;18.20;30.40;;;;;;5150360;27;35599;-79
2022/06/08 12:38:56;;;;;;;1.13;0.95;;;18.20;31.20;;;;;;5150537;27;33693;-80
2022/06/08 12:41:40;;;;;;;1.30;1.10;;;18.20;30.40;;;;;;5119247;27;34091;-79
2022/06/08 12:44:14;;;;;;;1.13;0.90;;;18.20;31.30;;;;;;5132957;27;34488;-79
2022/06/08 12:46:50;;;;;;;1.27;0.80;;;18.10;30.40;;;;;;5153072;27;34358;-79
2022/06/08 12:49:23;;;;;;;2.03;1.00;;;18.10;31.10;;;;;;5115331;27;34105;-80
2022/06/08 12:51:53;;;;;;;0.82;0.75;;;18.10;30.80;;;;;;5153133;27;34474;-79
2022/06/08 12:54:27;;;;;;;1.48;0.98;;;18.10;30.50;;;;;;5153110;27;34329;-77
2022/06/08 12:56:58;;;;;;;1.20;0.90;;;18.00;30.50;;;;;;5156175;27;35638;-80
2022/06/08 12:59:25;;;;;;;1.40;0.60;;;17.90;30.60;;;;;;5176141;27;34550;-79
2022/06/08 13:01:53;;;;;;;0.60;0.50;;;17.70;30.50;;;;;;5174820;27;34114;-80
2022/06/08 13:04:22;;;;;;;0.93;0.80;;;17.40;30.60;;;;;;5156341;27;34158;-77
2022/06/08 13:06:48;;;;;;;0.95;0.50;;;17.30;31.00;;;;;;5154576;27;35741;-78
2022/06/08 13:09:17;;;;;;;1.05;0.70;;;17.20;30.90;;;;;;5174243;27;34247;-81
2022/06/08 13:11:45;;;;;;;0.43;0.43;;;17.20;31.20;;;;;;5157571;27;34057;-82
2022/06/08 13:14:16;;;;;;;1.23;0.50;;;17.30;31.30;;;;;;5156403;27;34467;-83
2022/06/08 13:16:44;;;;;;;0.60;0.60;;;17.40;31.30;;;;;;5137946;27;36391;-83
2022/06/08 13:19:12;;;;;;;0.50;0.50;;;17.60;31.10;;;;;;5152474;27;34144;-80
2022/06/08 13:21:40;;;;;;;0.40;0.40;;;17.70;31.10;;;;;;5156572;27;34020;-82
2022/06/08 13:24:06;;;;;;;0.50;0.40;;;17.80;30.70;;;;;;5155153;27;34465;-84
2022/06/08 13:26:34;;;;;;;0.82;0.50;;;17.80;30.60;;;;;;5154986;27;35015;-83
2022/06/08 13:29:02;;;;;;;0.95;0.60;;;17.90;30.40;;;;;;5153849;27;34292;-80
2022/06/08 13:31:28;;;;;;;0.88;0.50;;;18.00;30.30;;;;;;5155548;27;34429;-80
2022/06/08 13:33:56;;;;;;;0.50;0.50;;;18.10;30.30;;;;;;5136244;27;34072;-82
2022/06/08 13:36:27;;;;;;;0.57;0.57;;;18.20;30.30;;;;;;5173355;27;35318;-79
2022/06/08 13:39:03;;;;;;;0.50;0.50;;;18.20;30.50;;;;;;5154691;27;34065;-82
2022/06/08 13:41:29;;;;;;;0.75;0.60;;;18.30;30.60;;;;;;5155973;27;33898;-82
2022/06/08 13:43:55;;;;;;;0.40;0.40;;;18.40;30.10;;;;;;5153835;27;34416;-82